createdAt,value
2019-01-18T00:00:47.567Z,284.41
2019-01-18T00:01:47.565Z,284.17
2019-01-18T00:02:47.577Z,284.14
2019-01-18T00:03:47.543Z,284.36
2019-01-18T00:04:47.514Z,284.10
2019-01-18T00:05:47.504Z,284.70
2019-01-18T00:06:47.526Z,285.15
2019-01-18T00:07:47.479Z,284.71
2019-01-18T00:08:47.490Z,284.69
2019-01-18T00:09:47.496Z,284.43
2019-01-18T00:10:47.450Z,284.16
2019-01-18T00:11:47.497Z,284.08
2019-01-18T00:12:47.444Z,285.22
2019-01-18T00:13:47.421Z,284.21
2019-01-18T00:14:47.417Z,284.43
2019-01-18T00:15:47.417Z,284.29
2019-01-18T00:16:47.390Z,285.00
2019-01-18T00:17:47.392Z,285.04
2019-01-18T00:18:47.377Z,284.22
2019-01-18T00:19:47.366Z,284.43
2019-01-18T00:20:47.360Z,284.55
2019-01-18T00:21:47.368Z,284.77
2019-01-18T00:22:47.330Z,284.43
2019-01-18T00:23:47.377Z,284.50
2019-01-18T00:24:47.330Z,284.23
2019-01-18T00:25:47.296Z,284.51
2019-01-18T00:26:47.296Z,284.65
2019-01-18T00:27:47.290Z,283.77
2019-01-18T00:28:47.260Z,284.73
2019-01-18T00:29:47.263Z,285.07
2019-01-18T00:30:47.261Z,284.49
2019-01-18T00:31:47.234Z,284.52
2019-01-18T00:32:47.229Z,284.49
2019-01-18T00:33:47.213Z,284.66
2019-01-18T00:34:47.200Z,284.62
2019-01-18T00:35:47.201Z,284.38
2019-01-18T00:36:47.185Z,284.47
2019-01-18T00:37:47.168Z,284.23
2019-01-18T00:38:47.158Z,284.40
2019-01-18T00:39:47.142Z,284.63
2019-01-18T00:40:47.129Z,284.35
2019-01-18T00:41:47.179Z,284.66
2019-01-18T00:42:47.118Z,285.26
2019-01-18T00:43:47.111Z,284.70
2019-01-18T00:44:47.111Z,284.76
2019-01-18T00:45:47.083Z,284.19
2019-01-18T00:46:47.075Z,284.31
2019-01-18T00:47:47.080Z,284.83
2019-01-18T00:48:47.424Z,284.34
2019-01-18T00:49:47.048Z,284.58
2019-01-18T00:50:47.040Z,283.81
2019-01-18T00:51:47.021Z,284.49
2019-01-18T00:52:47.018Z,284.57
2019-01-18T00:53:47.008Z,284.51
2019-01-18T00:54:46.993Z,284.68
2019-01-18T00:55:46.981Z,284.53
2019-01-18T00:56:46.981Z,284.49
2019-01-18T00:57:46.959Z,284.72
2019-01-18T00:58:46.943Z,284.60
2019-01-18T00:59:46.949Z,284.61
2019-01-18T01:00:46.972Z,283.93
2019-01-18T01:01:46.915Z,284.53
2019-01-18T01:02:46.908Z,284.56
2019-01-18T01:03:46.895Z,284.39
2019-01-18T01:04:46.884Z,284.58
2019-01-18T01:05:46.896Z,283.92
2019-01-18T01:06:46.864Z,284.66
2019-01-18T01:07:46.855Z,284.09
2019-01-18T01:08:46.831Z,284.65
2019-01-18T01:09:46.830Z,284.37
2019-01-18T01:10:46.813Z,284.02
2019-01-18T01:11:46.803Z,284.71
2019-01-18T01:12:46.807Z,284.47
2019-01-18T01:13:46.789Z,284.37
2019-01-18T01:14:46.772Z,284.41
2019-01-18T01:15:46.769Z,284.66
2019-01-18T01:16:46.746Z,284.73
2019-01-18T01:17:46.743Z,284.14
2019-01-18T01:18:46.738Z,285.03
2019-01-18T01:19:46.730Z,284.55
2019-01-18T01:20:46.711Z,284.28
2019-01-18T01:21:46.698Z,283.62
2019-01-18T01:22:46.690Z,284.62
2019-01-18T01:23:46.678Z,284.17
2019-01-18T01:24:46.667Z,284.64
2019-01-18T01:25:46.663Z,284.58
2019-01-18T01:26:46.650Z,284.41
2019-01-18T01:27:46.637Z,284.53
2019-01-18T01:28:46.630Z,284.61
2019-01-18T01:29:46.613Z,284.27
2019-01-18T01:30:46.613Z,284.47
2019-01-18T01:31:46.590Z,284.72
2019-01-18T01:32:46.586Z,284.56
2019-01-18T01:33:46.573Z,284.34
2019-01-18T01:34:46.566Z,284.44
2019-01-18T01:35:46.566Z,284.66
2019-01-18T01:36:46.546Z,284.15
2019-01-18T01:37:46.527Z,284.17
2019-01-18T01:38:46.515Z,284.84
2019-01-18T01:39:46.509Z,284.65
2019-01-18T01:40:46.504Z,284.67
2019-01-18T01:41:46.500Z,284.04
2019-01-18T01:42:46.481Z,284.62
2019-01-18T01:43:46.466Z,284.62
2019-01-18T01:44:46.458Z,284.11
2019-01-18T01:45:46.449Z,284.69
2019-01-18T01:46:46.439Z,284.38
2019-01-18T01:47:46.432Z,284.73
2019-01-18T01:48:46.423Z,284.02
2019-01-18T01:49:46.399Z,284.48
2019-01-18T01:50:46.396Z,284.07
2019-01-18T01:51:46.393Z,283.68
2019-01-18T01:52:46.385Z,284.03
2019-01-18T01:53:46.382Z,284.74
2019-01-18T01:54:46.364Z,284.41
2019-01-18T01:55:46.355Z,284.48
2019-01-18T01:56:46.331Z,284.64
2019-01-18T01:57:46.331Z,284.18
2019-01-18T01:58:46.333Z,284.41
2019-01-18T01:59:49.821Z,283.65
2019-01-18T02:00:46.307Z,284.21
2019-01-18T02:01:46.301Z,283.84
2019-01-18T02:02:46.264Z,283.90
2019-01-18T02:03:46.272Z,284.43
2019-01-18T02:04:46.278Z,284.93
2019-01-18T02:05:46.245Z,283.27
2019-01-18T02:06:46.248Z,284.58
2019-01-18T02:07:46.250Z,284.80
2019-01-18T02:08:46.208Z,284.57
2019-01-18T02:09:46.215Z,283.93
2019-01-18T02:10:47.143Z,283.78
2019-01-18T02:11:46.188Z,284.10
2019-01-18T02:12:46.183Z,284.59
2019-01-18T02:13:46.200Z,284.42
2019-01-18T02:14:46.153Z,284.16
2019-01-18T02:15:46.159Z,283.98
2019-01-18T02:16:46.140Z,284.52
2019-01-18T02:17:46.132Z,284.16
2019-01-18T02:18:46.121Z,283.91
2019-01-18T02:19:46.101Z,283.64
2019-01-18T02:20:46.113Z,284.39
2019-01-18T02:21:46.099Z,284.42
2019-01-18T02:22:46.070Z,284.44
2019-01-18T02:23:46.071Z,284.88
2019-01-18T02:24:46.052Z,284.18
2019-01-18T02:25:46.027Z,284.20
2019-01-18T02:26:46.031Z,284.11
2019-01-18T02:27:46.028Z,283.60
2019-01-18T02:28:46.004Z,283.98
2019-01-18T02:29:46.009Z,283.99
2019-01-18T02:30:45.991Z,284.43
2019-01-18T02:31:45.975Z,284.73
2019-01-18T02:32:45.977Z,284.31
2019-01-18T02:33:45.978Z,284.09
2019-01-18T02:34:45.953Z,283.78
2019-01-18T02:35:45.937Z,284.49
2019-01-18T02:36:45.919Z,284.08
2019-01-18T02:37:45.910Z,283.73
2019-01-18T02:38:45.914Z,284.26
2019-01-18T02:39:45.900Z,284.26
2019-01-18T02:40:45.886Z,284.12
2019-01-18T02:41:45.883Z,283.61
2019-01-18T02:42:45.860Z,283.83
2019-01-18T02:43:45.862Z,284.62
2019-01-18T02:44:45.844Z,283.94
2019-01-18T02:45:45.830Z,284.01
2019-01-18T02:46:45.822Z,284.00
2019-01-18T02:47:45.794Z,283.54
2019-01-18T02:48:45.833Z,284.29
2019-01-18T02:49:45.787Z,284.21
2019-01-18T02:50:45.762Z,284.09
2019-01-18T02:51:45.760Z,284.25
2019-01-18T02:52:45.759Z,283.98
2019-01-18T02:53:45.740Z,283.65
2019-01-18T02:54:45.720Z,283.70
2019-01-18T02:55:45.739Z,283.55
2019-01-18T02:56:45.710Z,284.89
2019-01-18T02:57:45.712Z,283.62
2019-01-18T02:58:45.703Z,283.94
2019-01-18T02:59:45.673Z,283.62
2019-01-18T03:00:45.666Z,284.30
2019-01-18T03:01:45.676Z,284.06
2019-01-18T03:02:45.641Z,283.81
2019-01-18T03:03:45.629Z,283.89
2019-01-18T03:04:45.672Z,283.60
2019-01-18T03:05:45.605Z,283.60
2019-01-18T03:06:45.596Z,283.90
2019-01-18T03:07:45.604Z,283.95
2019-01-18T03:08:45.578Z,283.13
2019-01-18T03:09:45.577Z,283.83
2019-01-18T03:10:45.561Z,283.80
2019-01-18T03:11:45.537Z,283.37
2019-01-18T03:12:45.542Z,283.64
2019-01-18T03:13:45.530Z,283.76
2019-01-18T03:14:45.514Z,284.12
2019-01-18T03:15:45.506Z,283.81
2019-01-18T03:16:45.534Z,284.09
2019-01-18T03:17:45.496Z,283.66
2019-01-18T03:18:45.476Z,282.85
2019-01-18T03:19:45.458Z,284.10
2019-01-18T03:20:45.480Z,283.25
2019-01-18T03:21:45.470Z,283.58
2019-01-18T03:22:45.439Z,284.10
2019-01-18T03:23:45.421Z,283.80
2019-01-18T03:24:45.415Z,284.12
2019-01-18T03:25:45.395Z,283.81
2019-01-18T03:26:45.388Z,284.01
2019-01-18T03:27:45.395Z,283.31
2019-01-18T03:28:45.365Z,283.72
2019-01-18T03:29:45.367Z,284.46
2019-01-18T03:30:45.357Z,283.59
2019-01-18T03:31:45.339Z,283.63
2019-01-18T03:32:45.363Z,283.69
2019-01-18T03:33:45.365Z,283.85
2019-01-18T03:34:45.352Z,283.67
2019-01-18T03:35:45.299Z,283.79
2019-01-18T03:36:45.297Z,283.45
2019-01-18T03:37:45.279Z,283.70
2019-01-18T03:38:45.277Z,284.37
2019-01-18T03:39:45.260Z,283.87
2019-01-18T03:40:45.270Z,283.31
2019-01-18T03:41:45.224Z,283.68
2019-01-18T03:42:45.239Z,283.50
2019-01-18T03:43:45.215Z,283.77
2019-01-18T03:44:45.223Z,284.10
2019-01-18T03:45:46.180Z,283.55
2019-01-18T03:46:45.171Z,283.44
2019-01-18T03:47:45.182Z,283.68
2019-01-18T03:48:45.152Z,284.03
2019-01-18T03:49:45.150Z,284.04
2019-01-18T03:50:45.148Z,283.26
2019-01-18T03:51:45.136Z,283.48
2019-01-18T03:52:45.120Z,283.21
2019-01-18T03:53:45.105Z,283.68
2019-01-18T03:54:45.081Z,283.94
2019-01-18T03:55:45.084Z,283.66
2019-01-18T03:56:45.123Z,283.45
2019-01-18T03:57:45.084Z,283.84
2019-01-18T03:58:45.058Z,284.39
2019-01-18T03:59:45.055Z,283.07
2019-01-18T04:00:45.076Z,283.95
2019-01-18T04:01:45.030Z,283.57
2019-01-18T04:02:45.007Z,283.48
2019-01-18T04:03:45.002Z,283.98
2019-01-18T04:04:44.985Z,283.42
2019-01-18T04:05:44.977Z,283.91
2019-01-18T04:06:44.952Z,283.58
2019-01-18T04:07:44.954Z,283.78
2019-01-18T04:08:44.938Z,284.13
2019-01-18T04:09:44.939Z,284.13
2019-01-18T04:10:44.922Z,283.93
2019-01-18T04:11:44.910Z,283.81
2019-01-18T04:12:44.894Z,284.05
2019-01-18T04:13:44.897Z,283.84
2019-01-18T04:14:44.880Z,283.70
2019-01-18T04:15:44.889Z,283.87
2019-01-18T04:16:44.862Z,283.61
2019-01-18T04:17:44.842Z,283.81
2019-01-18T04:18:44.837Z,284.17
2019-01-18T04:19:44.825Z,283.68
2019-01-18T04:20:44.874Z,283.76
2019-01-18T04:21:44.806Z,283.20
2019-01-18T04:22:44.793Z,283.82
2019-01-18T04:23:44.781Z,283.86
2019-01-18T04:24:44.780Z,283.98
2019-01-18T04:25:44.761Z,283.45
2019-01-18T04:26:44.762Z,283.93
2019-01-18T04:27:44.759Z,283.97
2019-01-18T04:28:44.724Z,284.32
2019-01-18T04:29:44.712Z,283.87
2019-01-18T04:30:44.715Z,284.16
2019-01-18T04:31:44.687Z,283.87
2019-01-18T04:32:44.684Z,283.92
2019-01-18T04:33:44.667Z,283.95
2019-01-18T04:34:44.749Z,283.92
2019-01-18T04:35:44.664Z,283.23
2019-01-18T04:36:44.633Z,283.88
2019-01-18T04:37:44.673Z,284.24
2019-01-18T04:38:44.646Z,284.53
2019-01-18T04:39:44.604Z,284.25
2019-01-18T04:40:44.606Z,283.98
2019-01-18T04:41:44.584Z,284.18
2019-01-18T04:42:44.584Z,283.88
2019-01-18T04:43:44.561Z,283.80
2019-01-18T04:44:44.577Z,284.60
2019-01-18T04:45:44.538Z,283.98
2019-01-18T04:46:44.536Z,284.27
2019-01-18T04:47:44.518Z,284.03
2019-01-18T04:48:44.531Z,283.56
2019-01-18T04:49:44.530Z,284.07
2019-01-18T04:50:44.496Z,283.76
2019-01-18T04:51:44.484Z,283.80
2019-01-18T04:52:44.498Z,283.84
2019-01-18T04:53:44.475Z,283.50
2019-01-18T04:54:44.453Z,284.01
2019-01-18T04:55:44.448Z,283.57
2019-01-18T04:56:44.440Z,284.15
2019-01-18T04:57:44.408Z,283.66
2019-01-18T04:58:44.419Z,284.30
2019-01-18T04:59:44.413Z,283.25
2019-01-18T05:00:44.406Z,283.55
2019-01-18T05:01:44.433Z,283.79
2019-01-18T05:02:44.357Z,283.75
2019-01-18T05:03:44.362Z,284.22
2019-01-18T05:04:44.350Z,284.46
2019-01-18T05:05:44.337Z,284.04
2019-01-18T05:06:44.351Z,283.24
2019-01-18T05:07:44.313Z,283.81
2019-01-18T05:08:44.347Z,284.48
2019-01-18T05:09:44.281Z,283.88
2019-01-18T05:10:44.281Z,283.81
2019-01-18T05:11:44.266Z,283.72
2019-01-18T05:12:44.270Z,284.41
2019-01-18T05:13:44.271Z,284.04
2019-01-18T05:14:44.241Z,283.78
2019-01-18T05:15:44.221Z,283.99
2019-01-18T05:16:44.230Z,283.25
2019-01-18T05:17:44.199Z,283.93
2019-01-18T05:18:44.221Z,283.51
2019-01-18T05:19:44.176Z,283.74
2019-01-18T05:20:44.172Z,283.76
2019-01-18T05:21:44.167Z,283.87
2019-01-18T05:22:44.141Z,283.76
2019-01-18T05:23:44.150Z,283.89
2019-01-18T05:24:49.275Z,283.94
2019-01-18T05:25:45.170Z,283.34
2019-01-18T05:26:44.113Z,283.90
2019-01-18T05:27:44.086Z,284.31
2019-01-18T05:28:44.088Z,284.14
2019-01-18T05:29:44.082Z,283.46
2019-01-18T05:30:47.677Z,283.58
2019-01-18T05:31:44.043Z,283.91
2019-01-18T05:32:44.048Z,283.36
2019-01-18T05:33:44.033Z,282.92
2019-01-18T05:34:44.020Z,283.95
2019-01-18T05:35:44.016Z,283.86
2019-01-18T05:36:44.008Z,282.82
2019-01-18T05:37:43.984Z,283.95
2019-01-18T05:38:43.978Z,283.50
2019-01-18T05:39:43.972Z,283.35
2019-01-18T05:40:43.973Z,283.96
2019-01-18T05:41:43.953Z,283.33
2019-01-18T05:42:43.969Z,283.54
2019-01-18T05:43:43.924Z,284.28
2019-01-18T05:44:43.945Z,283.59
2019-01-18T05:45:43.909Z,283.20
2019-01-18T05:46:43.918Z,283.89
2019-01-18T05:47:43.899Z,283.67
2019-01-18T05:48:43.911Z,283.26
2019-01-18T05:49:43.870Z,283.14
2019-01-18T05:50:43.857Z,282.66
2019-01-18T05:51:43.846Z,283.44
2019-01-18T05:52:43.858Z,283.11
2019-01-18T05:53:43.840Z,282.89
2019-01-18T05:54:43.803Z,283.43
2019-01-18T05:55:43.807Z,282.70
2019-01-18T05:56:43.788Z,283.10
2019-01-18T05:57:43.789Z,283.24
2019-01-18T05:58:43.779Z,283.20
2019-01-18T05:59:43.786Z,283.03
2019-01-18T06:00:43.742Z,282.81
2019-01-18T06:01:43.736Z,282.95
2019-01-18T06:02:43.725Z,282.40
2019-01-18T06:03:43.721Z,283.11
2019-01-18T06:04:43.744Z,282.81
2019-01-18T06:05:43.715Z,283.10
2019-01-18T06:06:43.670Z,283.03
2019-01-18T06:07:43.679Z,282.68
2019-01-18T06:08:43.663Z,282.80
2019-01-18T06:09:43.650Z,282.81
2019-01-18T06:10:43.644Z,282.52
2019-01-18T06:11:43.641Z,282.15
2019-01-18T06:12:43.615Z,282.51
2019-01-18T06:13:43.601Z,282.95
2019-01-18T06:14:43.603Z,282.99
2019-01-18T06:15:43.584Z,282.62
2019-01-18T06:16:43.569Z,282.11
2019-01-18T06:17:43.563Z,282.95
2019-01-18T06:18:43.552Z,282.42
2019-01-18T06:19:43.542Z,282.66
2019-01-18T06:20:43.582Z,282.55
2019-01-18T06:21:43.540Z,282.72
2019-01-18T06:22:43.521Z,282.28
2019-01-18T06:23:43.510Z,282.31
2019-01-18T06:24:43.520Z,283.15
2019-01-18T06:25:43.485Z,282.69
2019-01-18T06:26:43.477Z,282.40
2019-01-18T06:27:43.468Z,281.57
2019-01-18T06:28:43.460Z,282.04
2019-01-18T06:29:43.473Z,283.37
2019-01-18T06:30:43.444Z,282.67
2019-01-18T06:31:43.416Z,282.26
2019-01-18T06:32:43.415Z,282.39
2019-01-18T06:33:43.411Z,283.10
2019-01-18T06:34:43.392Z,282.73
2019-01-18T06:35:43.393Z,282.18
2019-01-18T06:36:43.421Z,282.37
2019-01-18T06:37:43.367Z,281.98
2019-01-18T06:38:43.349Z,282.72
2019-01-18T06:39:43.342Z,282.36
2019-01-18T06:40:43.327Z,282.47
2019-01-18T06:41:43.308Z,281.77
2019-01-18T06:42:43.317Z,282.40
2019-01-18T06:43:43.295Z,282.52
2019-01-18T06:44:43.299Z,282.44
2019-01-18T06:45:43.281Z,281.83
2019-01-18T06:46:43.263Z,282.81
2019-01-18T06:47:43.252Z,282.62
2019-01-18T06:48:43.262Z,282.28
2019-01-18T06:49:43.230Z,282.26
2019-01-18T06:50:43.213Z,282.08
2019-01-18T06:51:43.224Z,282.03
2019-01-18T06:52:43.208Z,282.21
2019-01-18T06:53:43.181Z,282.14
2019-01-18T06:54:43.258Z,282.19
2019-01-18T06:55:43.184Z,282.05
2019-01-18T06:56:43.201Z,281.21
2019-01-18T06:57:43.150Z,281.73
2019-01-18T06:58:43.184Z,282.60
2019-01-18T06:59:43.128Z,281.80
2019-01-18T07:00:43.125Z,282.02
2019-01-18T07:01:43.124Z,281.57
2019-01-18T07:02:43.119Z,281.95
2019-01-18T07:03:43.079Z,282.54
2019-01-18T07:04:43.063Z,282.37
2019-01-18T07:05:43.079Z,282.55
2019-01-18T07:06:43.052Z,282.96
2019-01-18T07:07:43.045Z,282.00
2019-01-18T07:08:43.035Z,282.08
2019-01-18T07:09:43.019Z,282.25
2019-01-18T07:10:42.999Z,282.09
2019-01-18T07:11:43.730Z,282.85
2019-01-18T07:12:42.993Z,281.73
2019-01-18T07:13:42.995Z,282.05
2019-01-18T07:14:42.975Z,282.11
2019-01-18T07:15:42.992Z,282.10
2019-01-18T07:16:42.958Z,282.12
2019-01-18T07:17:42.946Z,282.07
2019-01-18T07:18:42.926Z,281.86
2019-01-18T07:19:42.917Z,282.21
2019-01-18T07:20:42.938Z,281.85
2019-01-18T07:21:42.905Z,282.24
2019-01-18T07:22:42.880Z,282.00
2019-01-18T07:23:42.874Z,282.16
2019-01-18T07:24:42.863Z,281.94
2019-01-18T07:25:42.849Z,282.60
2019-01-18T07:26:42.860Z,281.99
2019-01-18T07:27:42.834Z,282.14
2019-01-18T07:28:42.822Z,282.31
2019-01-18T07:29:42.817Z,281.97
2019-01-18T07:30:42.811Z,281.08
2019-01-18T07:31:42.790Z,281.67
2019-01-18T07:32:42.784Z,282.37
2019-01-18T07:33:42.766Z,281.80
2019-01-18T07:34:42.767Z,282.26
2019-01-18T07:35:42.751Z,281.93
2019-01-18T07:36:42.757Z,280.76
2019-01-18T07:37:42.740Z,282.83
2019-01-18T07:38:42.725Z,281.64
2019-01-18T07:39:42.705Z,281.60
2019-01-18T07:40:42.713Z,281.42
2019-01-18T07:41:42.696Z,281.78
2019-01-18T07:42:42.685Z,281.56
2019-01-18T07:43:42.747Z,281.63
2019-01-18T07:44:42.667Z,282.04
2019-01-18T07:45:42.649Z,281.94
2019-01-18T07:46:42.635Z,282.13
2019-01-18T07:47:42.641Z,281.91
2019-01-18T07:48:42.636Z,281.57
2019-01-18T07:49:42.604Z,282.08
2019-01-18T07:50:42.589Z,281.79
2019-01-18T07:51:42.581Z,282.65
2019-01-18T07:52:42.574Z,282.04
2019-01-18T07:53:42.572Z,282.16
2019-01-18T07:54:42.557Z,282.27
2019-01-18T07:55:42.538Z,282.72
2019-01-18T07:56:42.533Z,282.09
2019-01-18T07:57:42.514Z,282.77
2019-01-18T07:58:42.513Z,281.73
2019-01-18T07:59:42.495Z,282.60
2019-01-18T08:00:42.497Z,282.43
2019-01-18T08:01:42.478Z,282.06
2019-01-18T08:02:42.488Z,282.11
2019-01-18T08:03:42.451Z,282.23
2019-01-18T08:04:42.484Z,282.38
2019-01-18T08:05:42.454Z,282.63
2019-01-18T08:06:42.477Z,282.09
2019-01-18T08:07:42.421Z,282.37
2019-01-18T08:08:42.424Z,278.84
2019-01-18T08:09:42.410Z,283.92
2019-01-18T08:10:42.380Z,282.03
2019-01-18T08:11:42.369Z,282.34
2019-01-18T08:12:42.360Z,282.60
2019-01-18T08:13:42.353Z,282.89
2019-01-18T08:14:42.366Z,282.70
2019-01-18T08:15:42.332Z,283.12
2019-01-18T08:16:43.608Z,285.31
2019-01-18T08:17:43.209Z,282.89
2019-01-18T08:18:42.293Z,282.07
2019-01-18T08:19:42.339Z,282.50
2019-01-18T08:20:42.302Z,282.98
2019-01-18T08:21:42.269Z,282.82
2019-01-18T08:22:42.267Z,282.76
2019-01-18T08:23:42.238Z,282.93
2019-01-18T08:24:42.229Z,282.66
2019-01-18T08:25:42.226Z,283.00
2019-01-18T08:26:42.215Z,283.08
2019-01-18T08:27:42.202Z,283.05
2019-01-18T08:28:42.191Z,282.13
2019-01-18T08:29:42.173Z,282.89
2019-01-18T08:30:42.167Z,283.16
2019-01-18T08:31:42.167Z,282.77
2019-01-18T08:32:42.157Z,283.46
2019-01-18T08:33:42.170Z,283.14
2019-01-18T08:34:42.135Z,282.74
2019-01-18T08:35:42.105Z,283.31
2019-01-18T08:36:42.135Z,283.26
2019-01-18T08:37:42.106Z,283.04
2019-01-18T08:38:42.085Z,282.98
2019-01-18T08:39:42.103Z,282.94
2019-01-18T08:40:42.059Z,283.09
2019-01-18T08:41:42.045Z,283.32
2019-01-18T08:42:42.029Z,283.17
2019-01-18T08:43:42.015Z,282.90
2019-01-18T08:44:42.020Z,282.42
2019-01-18T08:45:42.023Z,282.62
2019-01-18T08:46:42.032Z,282.93
2019-01-18T08:47:41.984Z,283.09
2019-01-18T08:48:41.975Z,282.86
2019-01-18T08:49:41.989Z,282.38
2019-01-18T08:50:41.968Z,282.80
2019-01-18T08:51:42.022Z,283.41
2019-01-18T08:52:41.969Z,282.69
2019-01-18T08:53:41.929Z,282.81
2019-01-18T08:54:41.909Z,283.11
2019-01-18T08:55:41.911Z,282.72
2019-01-18T08:56:41.917Z,283.21
2019-01-18T08:57:41.907Z,282.82
2019-01-18T08:58:41.866Z,283.54
2019-01-18T08:59:41.850Z,282.60
2019-01-18T09:00:41.856Z,283.04
2019-01-18T09:01:41.869Z,281.49
2019-01-18T09:02:41.884Z,282.83
2019-01-18T09:03:41.826Z,281.96
2019-01-18T09:04:41.821Z,283.15
2019-01-18T09:05:41.815Z,283.10
2019-01-18T09:06:41.958Z,283.13
2019-01-18T09:07:41.792Z,282.90
2019-01-18T09:08:41.809Z,283.23
2019-01-18T09:09:41.780Z,282.28
2019-01-18T09:10:41.761Z,283.35
2019-01-18T09:11:41.742Z,282.99
2019-01-18T09:12:41.729Z,283.09
2019-01-18T09:13:41.738Z,283.08
2019-01-18T09:14:41.776Z,282.62
2019-01-18T09:15:41.739Z,283.37
2019-01-18T09:16:41.675Z,282.58
2019-01-18T09:17:41.675Z,282.53
2019-01-18T09:18:42.306Z,282.36
2019-01-18T09:19:41.669Z,283.45
2019-01-18T09:20:41.643Z,282.34
2019-01-18T09:21:41.622Z,281.93
2019-01-18T09:22:41.613Z,281.91
2019-01-18T09:23:41.694Z,283.39
2019-01-18T09:24:41.601Z,282.95
2019-01-18T09:25:41.619Z,282.56
2019-01-18T09:26:41.584Z,282.70
2019-01-18T09:27:41.561Z,282.65
2019-01-18T09:28:41.551Z,283.08
2019-01-18T09:29:41.540Z,283.20
2019-01-18T09:30:41.540Z,281.72
2019-01-18T09:31:42.639Z,282.96
2019-01-18T09:32:41.554Z,282.79
2019-01-18T09:33:41.597Z,283.00
2019-01-18T09:34:41.499Z,282.43
2019-01-18T09:35:41.519Z,282.76
2019-01-18T09:36:41.487Z,282.48
2019-01-18T09:37:41.484Z,282.35
2019-01-18T09:38:41.448Z,282.90
2019-01-18T09:39:41.445Z,282.76
2019-01-18T09:40:41.421Z,282.54
2019-01-18T09:41:41.425Z,282.35
2019-01-18T09:42:41.430Z,282.91
2019-01-18T09:43:41.431Z,282.46
2019-01-18T09:44:41.410Z,282.82
2019-01-18T09:45:41.385Z,282.39
2019-01-18T09:46:41.356Z,281.66
2019-01-18T09:47:41.422Z,281.77
2019-01-18T09:48:41.425Z,282.34
2019-01-18T09:49:41.334Z,282.92
2019-01-18T09:50:41.311Z,283.12
2019-01-18T09:51:41.318Z,282.17
2019-01-18T09:52:41.296Z,282.01
2019-01-18T09:53:41.305Z,282.75
2019-01-18T09:54:41.294Z,282.83
2019-01-18T09:55:41.278Z,282.65
2019-01-18T09:56:41.253Z,280.91
2019-01-18T09:57:41.244Z,282.73
2019-01-18T09:58:41.255Z,282.37
2019-01-18T09:59:41.247Z,282.99
2019-01-18T10:00:41.251Z,283.97
2019-01-18T10:01:41.217Z,282.66
2019-01-18T10:02:41.198Z,282.26
2019-01-18T10:03:41.174Z,282.18
2019-01-18T10:04:41.177Z,282.64
2019-01-18T10:05:41.183Z,282.17
2019-01-18T10:06:41.174Z,282.42
2019-01-18T10:07:41.274Z,282.49
2019-01-18T10:08:41.131Z,282.72
2019-01-18T10:09:41.115Z,281.87
2019-01-18T10:10:41.109Z,282.58
2019-01-18T10:11:41.111Z,283.09
2019-01-18T10:12:41.078Z,283.27
2019-01-18T10:13:41.124Z,282.32
2019-01-18T10:14:41.056Z,282.96
2019-01-18T10:15:41.053Z,282.50
2019-01-18T10:16:41.067Z,282.53
2019-01-18T10:17:41.047Z,283.15
2019-01-18T10:18:41.014Z,282.84
2019-01-18T10:19:41.047Z,283.67
2019-01-18T10:20:41.029Z,282.41
2019-01-18T10:21:41.003Z,282.80
2019-01-18T10:22:40.998Z,282.01
2019-01-18T10:23:40.989Z,282.83
2019-01-18T10:24:40.974Z,282.89
2019-01-18T10:25:41.031Z,283.08
2019-01-18T10:26:40.935Z,282.76
2019-01-18T10:27:40.956Z,282.90
2019-01-18T10:28:40.931Z,282.45
2019-01-18T10:29:40.929Z,282.34
2019-01-18T10:30:40.934Z,282.80
2019-01-18T10:31:40.885Z,281.88
2019-01-18T10:32:40.868Z,282.71
2019-01-18T10:33:40.863Z,282.84
2019-01-18T10:34:40.878Z,282.68
2019-01-18T10:35:40.859Z,282.27
2019-01-18T10:36:40.886Z,282.83
2019-01-18T10:37:40.824Z,282.95
2019-01-18T10:38:40.811Z,282.16
2019-01-18T10:39:40.805Z,282.09
2019-01-18T10:40:40.794Z,283.28
2019-01-18T10:41:40.862Z,282.59
2019-01-18T10:42:40.773Z,282.56
2019-01-18T10:43:40.779Z,283.11
2019-01-18T10:44:40.820Z,283.25
2019-01-18T10:45:40.750Z,281.47
2019-01-18T10:46:40.799Z,282.30
2019-01-18T10:47:40.762Z,282.22
2019-01-18T10:48:40.704Z,282.76
2019-01-18T10:49:40.690Z,282.63
2019-01-18T10:50:40.679Z,282.86
2019-01-18T10:51:40.685Z,282.63
2019-01-18T10:52:40.689Z,282.61
2019-01-18T10:53:40.696Z,282.79
2019-01-18T10:54:40.647Z,282.38
2019-01-18T10:55:40.635Z,282.66
2019-01-18T10:56:40.645Z,282.56
2019-01-18T10:57:40.651Z,282.53
2019-01-18T10:58:40.627Z,282.20
2019-01-18T10:59:40.587Z,282.84
2019-01-18T11:00:40.585Z,282.83
2019-01-18T11:01:40.573Z,281.55
2019-01-18T11:02:40.567Z,281.68
2019-01-18T11:03:40.591Z,282.48
2019-01-18T11:04:40.563Z,282.63
2019-01-18T11:05:40.529Z,282.88
2019-01-18T11:06:40.575Z,283.00
2019-01-18T11:07:40.511Z,282.10
2019-01-18T11:08:40.536Z,281.58
2019-01-18T11:09:40.507Z,282.59
2019-01-18T11:10:40.506Z,282.48
2019-01-18T11:11:40.455Z,281.86
2019-01-18T11:12:40.515Z,282.16
2019-01-18T11:13:40.465Z,283.92
2019-01-18T11:14:40.450Z,281.83
2019-01-18T11:15:40.429Z,282.92
2019-01-18T11:16:40.435Z,282.00
2019-01-18T11:17:40.444Z,282.52
2019-01-18T11:18:40.397Z,282.12
2019-01-18T11:19:40.382Z,282.28
2019-01-18T11:20:40.378Z,282.49
2019-01-18T11:21:40.377Z,282.07
2019-01-18T11:22:40.404Z,282.61
2019-01-18T11:23:40.342Z,282.34
2019-01-18T11:24:40.330Z,282.34
2019-01-18T11:25:40.368Z,279.27
2019-01-18T11:26:40.323Z,282.41
2019-01-18T11:27:40.334Z,282.07
2019-01-18T11:28:40.355Z,282.37
2019-01-18T11:29:40.281Z,282.69
2019-01-18T11:30:40.268Z,282.89
2019-01-18T11:31:40.260Z,282.79
2019-01-18T11:32:40.271Z,282.49
2019-01-18T11:33:40.256Z,283.11
2019-01-18T11:34:40.280Z,283.73
2019-01-18T11:35:40.318Z,282.63
2019-01-18T11:36:40.208Z,282.82
2019-01-18T11:37:40.192Z,282.65
2019-01-18T11:38:40.199Z,282.86
2019-01-18T11:39:40.209Z,283.07
2019-01-18T11:40:40.153Z,282.85
2019-01-18T11:41:40.145Z,282.25
2019-01-18T11:42:40.146Z,282.10
2019-01-18T11:43:40.133Z,282.30
2019-01-18T11:44:40.154Z,282.28
2019-01-18T11:45:40.111Z,282.44
2019-01-18T11:46:40.107Z,282.23
2019-01-18T11:47:40.091Z,282.91
2019-01-18T11:48:40.122Z,283.11
2019-01-18T11:49:40.077Z,282.17
2019-01-18T11:50:40.080Z,283.01
2019-01-18T11:51:40.041Z,275.07
2019-01-18T11:52:40.034Z,283.47
2019-01-18T11:53:40.902Z,282.60
2019-01-18T11:54:43.957Z,283.14
2019-01-18T11:55:40.015Z,282.16
2019-01-18T11:56:40.003Z,282.63
2019-01-18T11:57:40.008Z,281.44
2019-01-18T11:58:39.974Z,281.96
2019-01-18T11:59:39.953Z,282.21
2019-01-18T12:00:39.947Z,282.65
2019-01-18T12:01:39.967Z,282.75
2019-01-18T12:02:39.939Z,283.46
2019-01-18T12:03:39.949Z,282.44
2019-01-18T12:04:39.919Z,282.33
2019-01-18T12:05:39.895Z,283.29
2019-01-18T12:06:39.884Z,277.63
2019-01-18T12:07:39.989Z,282.84
2019-01-18T12:08:41.903Z,283.18
2019-01-18T12:09:39.855Z,282.82
2019-01-18T12:10:39.841Z,282.76
2019-01-18T12:11:39.858Z,283.91
2019-01-18T12:12:39.855Z,282.02
2019-01-18T12:13:39.831Z,282.28
2019-01-18T12:14:39.865Z,282.69
2019-01-18T12:15:39.794Z,282.66
2019-01-18T12:16:39.822Z,282.36
2019-01-18T12:17:39.874Z,282.03
2019-01-18T12:18:39.761Z,283.24
2019-01-18T12:19:39.773Z,282.28
2019-01-18T12:20:39.844Z,282.60
2019-01-18T12:21:39.723Z,283.16
2019-01-18T12:22:39.712Z,283.01
2019-01-18T12:23:39.705Z,282.07
2019-01-18T12:24:39.712Z,283.36
2019-01-18T12:25:39.705Z,282.84
2019-01-18T12:26:39.711Z,282.86
2019-01-18T12:27:39.664Z,282.94
2019-01-18T12:28:39.666Z,282.70